CG Margaret Norvell — NFPE — position and weather

sailwx.info

Track history (hours):
 
Tides and Currents Weather Stations Pressure Air Temp Water Temp Dewpoint Dewpoint Depression Visibility Wind Speed Wind Dir Waves Ship Positions

CG Margaret Norvell

Last reported at 2018-Jul-06 11:31 UTC. Time now 2018-Jul-23 00:15 UTC.
Position N 25°46' W 080°09'.
Warning: this ship's position is 16 days out of date.

Length 46 m; draft 3 m.

Type: Law enforcement. MMSI: 338926405.

Date/timePositionNaut miles runAvg speedWind from/ knotsBaromVisibWave heightAir tempDewpointWater temp
2018-Jul-06 11:31N 25°46' W 080°09'0 0.0
2018-Jul-06 11:30N 25°46' W 080°09'0 0.0
2018-Jul-04 17:10N 25°46' W 080°09'0 3.2
2018-Jul-04 17:01N 25°46' W 080°08'510.7
2018-Jul-04 16:30N 25°48' W 080°03'0 0.9
2018-Jul-04 16:00N 25°48' W 080°02'5 9.7
2018-Jul-04 15:30N 25°53' W 080°02'2 3.0
2018-Jul-04 15:00N 25°52' W 080°02'612.4
2018-Jul-04 14:30N 25°46' W 080°05'3 6.8
2018-Jul-04 14:00N 25°46' W 080°09'0 0.0
2018-Jul-04 13:30N 25°46' W 080°09'0 0.0
2018-Jul-04 13:01N 25°46' W 080°09'0 0.0
2018-Jul-04 12:31N 25°46' W 080°09'0 0.0
2018-Jul-04 12:00N 25°46' W 080°09'0 0.0
2018-Jul-02 12:39N 25°46' W 080°09'0 0.0
2018-Jul-02 12:31N 25°46' W 080°09'0 0.0
2018-Jul-02 12:00N 25°46' W 080°09'1 2.8
2018-Jul-02 11:31N 25°46' W 080°07'3 0.1
2018-Jun-30 12:59N 25°46' W 080°04'4 8.5
2018-Jun-30 12:30N 25°46' W 080°09'0 0.0
2018-Jun-30 12:00N 25°46' W 080°09'0 0.0
2018-Jun-30 11:30N 25°46' W 080°09'0 0.0
2018-Jun-30 11:00N 25°46' W 080°09'0 0.0
2018-Jun-30 10:31N 25°46' W 080°09'0 0.0
2018-Jun-30 10:00N 25°46' W 080°09'0 0.0
2018-Jun-30 09:30N 25°46' W 080°09'0 0.0
2018-Jun-30 09:01N 25°46' W 080°09'0 0.0
2018-Jun-30 08:31N 25°46' W 080°09'0 0.0
2018-Jun-30 08:01N 25°46' W 080°09'0 0.0
2018-Jun-30 07:31N 25°46' W 080°09'0 0.0
2018-Jun-30 07:01N 25°46' W 080°09'0 0.0
2018-Jun-30 06:31N 25°46' W 080°09'0 0.0
2018-Jun-30 06:00N 25°46' W 080°09'0 0.0
2018-Jun-30 05:31N 25°46' W 080°09'0 0.0
2018-Jun-30 05:00N 25°46' W 080°09'0 0.0
2018-Jun-30 04:30N 25°46' W 080°09'0 0.0
2018-Jun-30 04:00N 25°46' W 080°09'0 0.0
2018-Jun-30 03:29N 25°46' W 080°09'0 0.0
2018-Jun-30 03:00N 25°46' W 080°09'0 0.0
2018-Jun-30 02:30N 25°46' W 080°09'0 0.0
2018-Jun-30 02:00N 25°46' W 080°09'0 0.0
2018-Jun-30 01:30N 25°46' W 080°09'0 0.0
2018-Jun-30 01:00N 25°46' W 080°09'0 0.0
2018-Jun-30 00:30N 25°46' W 080°09'0 0.0
2018-Jun-30 00:00N 25°46' W 080°09'0 0.0
2018-Jun-29 23:30N 25°46' W 080°09'0 0.0
2018-Jun-29 23:00N 25°46' W 080°09'0 0.0
2018-Jun-29 22:29N 25°46' W 080°09'0 0.0
2018-Jun-29 22:00N 25°46' W 080°09'0 0.0
2018-Jun-29 21:30N 25°46' W 080°09'0 0.0
2018-Jun-29 21:00N 25°46' W 080°09'0 0.0
2018-Jun-29 20:30N 25°46' W 080°09'0 0.0
2018-Jun-29 20:01N 25°46' W 080°09'0 0.0
2018-Jun-29 19:31N 25°46' W 080°09'0 0.0
2018-Jun-29 19:00N 25°46' W 080°09'0 0.0
2018-Jun-29 18:30N 25°46' W 080°09'0 0.0
2018-Jun-29 18:00N 25°46' W 080°09'0 0.0
2018-Jun-29 17:30N 25°46' W 080°09'0 0.0
2018-Jun-29 17:00N 25°46' W 080°09'0 0.0
2018-Jun-29 16:30N 25°46' W 080°09'0 0.0
2018-Jun-29 16:01N 25°46' W 080°09'0 0.0
2018-Jun-29 15:30N 25°46' W 080°09'0 0.0
2018-Jun-27 15:50N 25°46' W 080°09'0 0.0
2018-Jun-27 15:30N 25°46' W 080°09'0 0.0
2018-Jun-27 15:00N 25°46' W 080°09'  
Track history (hours):
 
Tides and Currents Weather Stations Pressure Air Temp Water Temp Dewpoint Dewpoint Depression Visibility Wind Speed Wind Dir Waves Ship Positions

CG Margaret Norvell

Last reported at 2018-Jul-06 11:31 UTC. Time now 2018-Jul-23 00:15 UTC.
Position N 25°46' W 080°09'.
Warning: this ship's position is 16 days out of date.

Length 46 m; draft 3 m.

Type: Law enforcement. MMSI: 338926405.

Date/timePositionNaut miles runAvg speedWind from/ knotsBaromVisibWave heightAir tempDewpointWater temp
2018-Jul-06 11:31N 25°46' W 080°09'0 0.0
2018-Jul-06 11:30N 25°46' W 080°09'0 0.0
2018-Jul-04 17:10N 25°46' W 080°09'0 3.2
2018-Jul-04 17:01N 25°46' W 080°08'510.7
2018-Jul-04 16:30N 25°48' W 080°03'0 0.9
2018-Jul-04 16:00N 25°48' W 080°02'5 9.7
2018-Jul-04 15:30N 25°53' W 080°02'2 3.0
2018-Jul-04 15:00N 25°52' W 080°02'612.4
2018-Jul-04 14:30N 25°46' W 080°05'3 6.8
2018-Jul-04 14:00N 25°46' W 080°09'0 0.0
2018-Jul-04 13:30N 25°46' W 080°09'0 0.0
2018-Jul-04 13:01N 25°46' W 080°09'0 0.0
2018-Jul-04 12:31N 25°46' W 080°09'0 0.0
2018-Jul-04 12:00N 25°46' W 080°09'0 0.0
2018-Jul-02 12:39N 25°46' W 080°09'0 0.0
2018-Jul-02 12:31N 25°46' W 080°09'0 0.0
2018-Jul-02 12:00N 25°46' W 080°09'1 2.8
2018-Jul-02 11:31N 25°46' W 080°07'3 0.1
2018-Jun-30 12:59N 25°46' W 080°04'4 8.5
2018-Jun-30 12:30N 25°46' W 080°09'0 0.0
2018-Jun-30 12:00N 25°46' W 080°09'0 0.0
2018-Jun-30 11:30N 25°46' W 080°09'0 0.0
2018-Jun-30 11:00N 25°46' W 080°09'0 0.0
2018-Jun-30 10:31N 25°46' W 080°09'0 0.0
2018-Jun-30 10:00N 25°46' W 080°09'0 0.0
2018-Jun-30 09:30N 25°46' W 080°09'0 0.0
2018-Jun-30 09:01N 25°46' W 080°09'0 0.0
2018-Jun-30 08:31N 25°46' W 080°09'0 0.0
2018-Jun-30 08:01N 25°46' W 080°09'0 0.0
2018-Jun-30 07:31N 25°46' W 080°09'0 0.0
2018-Jun-30 07:01N 25°46' W 080°09'0 0.0
2018-Jun-30 06:31N 25°46' W 080°09'0 0.0
2018-Jun-30 06:00N 25°46' W 080°09'0 0.0
2018-Jun-30 05:31N 25°46' W 080°09'0 0.0
2018-Jun-30 05:00N 25°46' W 080°09'0 0.0
2018-Jun-30 04:30N 25°46' W 080°09'0 0.0
2018-Jun-30 04:00N 25°46' W 080°09'0 0.0
2018-Jun-30 03:29N 25°46' W 080°09'0 0.0
2018-Jun-30 03:00N 25°46' W 080°09'0 0.0
2018-Jun-30 02:30N 25°46' W 080°09'0 0.0
2018-Jun-30 02:00N 25°46' W 080°09'0 0.0
2018-Jun-30 01:30N 25°46' W 080°09'0 0.0
2018-Jun-30 01:00N 25°46' W 080°09'0 0.0
2018-Jun-30 00:30N 25°46' W 080°09'0 0.0
2018-Jun-30 00:00N 25°46' W 080°09'0 0.0
2018-Jun-29 23:30N 25°46' W 080°09'0 0.0
2018-Jun-29 23:00N 25°46' W 080°09'0 0.0
2018-Jun-29 22:29N 25°46' W 080°09'0 0.0
2018-Jun-29 22:00N 25°46' W 080°09'0 0.0
2018-Jun-29 21:30N 25°46' W 080°09'0 0.0
2018-Jun-29 21:00N 25°46' W 080°09'0 0.0
2018-Jun-29 20:30N 25°46' W 080°09'0 0.0
2018-Jun-29 20:01N 25°46' W 080°09'0 0.0
2018-Jun-29 19:31N 25°46' W 080°09'0 0.0
2018-Jun-29 19:00N 25°46' W 080°09'0 0.0
2018-Jun-29 18:30N 25°46' W 080°09'0 0.0
2018-Jun-29 18:00N 25°46' W 080°09'0 0.0
2018-Jun-29 17:30N 25°46' W 080°09'0 0.0
2018-Jun-29 17:00N 25°46' W 080°09'0 0.0
2018-Jun-29 16:30N 25°46' W 080°09'0 0.0
2018-Jun-29 16:01N 25°46' W 080°09'0 0.0
2018-Jun-29 15:30N 25°46' W 080°09'0 0.0
2018-Jun-27 15:50N 25°46' W 080°09'0 0.0
2018-Jun-27 15:30N 25°46' W 080°09'0 0.0
2018-Jun-27 15:00N 25°46' W 080°09'  

Dump ship's entire track history